Time;durP1;ratioP1;P1;durP2;ratioP2;P2;SDS_P1;SDS_P2;PMS_P1;PMS_P2;Temp;Humidity;BMP_temperature;BMP_pressure;BME280_temperature;BME280_humidity;BME280_pressure;Samples;Min_cycle;Max_cycle;Signal;HPM_P1;HPM_P2
2024/02/22 00:02:04;;;;;;;1.33;0.90;;;26.90;46.70;;;;;;5034710;28;87325;-54
2024/02/22 00:04:30;;;;;;;2.03;0.80;;;26.90;46.70;;;;;;5016843;28;87595;-56
2024/02/22 00:06:57;;;;;;;1.45;0.90;;;26.90;46.70;;;;;;5033664;28;87967;-55
2024/02/22 00:09:23;;;;;;;2.08;1.02;;;26.90;46.60;;;;;;5033908;28;88545;-54
2024/02/22 00:11:49;;;;;;;2.97;0.98;;;26.80;46.50;;;;;;5030421;28;86796;-51
2024/02/22 00:14:14;;;;;;;1.58;0.85;;;26.90;47.30;;;;;;5032555;28;87637;-51
2024/02/22 00:16:40;;;;;;;3.00;1.20;;;26.80;46.50;;;;;;5017408;28;88804;-53
2024/02/22 00:19:07;;;;;;;3.28;1.40;;;26.90;46.50;;;;;;5031861;28;87266;-51
2024/02/22 00:21:34;;;;;;;2.08;1.08;;;26.80;46.50;;;;;;5015555;28;87948;-56
2024/02/22 00:26:26;;;;;;;2.05;1.23;;;26.80;46.50;;;;;;4995424;28;89197;-54
2024/02/22 00:28:52;;;;;;;2.63;1.00;;;26.80;46.50;;;;;;5032981;28;87176;-57
2024/02/22 00:31:18;;;;;;;1.63;1.02;;;26.80;46.40;;;;;;4997609;28;87990;-51
2024/02/22 00:33:45;;;;;;;2.90;1.50;;;26.80;46.30;;;;;;5032039;28;87671;-54
2024/02/22 00:36:11;;;;;;;1.38;1.02;;;26.80;46.40;;;;;;5032574;28;87649;-57
2024/02/22 00:38:37;;;;;;;1.52;0.70;;;26.80;46.30;;;;;;5015236;28;87368;-53
2024/02/22 00:41:04;;;;;;;2.28;0.80;;;26.80;46.40;;;;;;5033091;28;86835;-52
2024/02/22 00:43:29;;;;;;;2.03;0.95;;;26.80;46.40;;;;;;5027027;28;87956;-55
2024/02/22 00:45:55;;;;;;;1.30;0.80;;;26.80;46.20;;;;;;5030291;28;87319;-53
2024/02/22 00:48:21;;;;;;;2.58;1.10;;;26.80;46.30;;;;;;5030823;28;88262;-53
2024/02/22 00:50:47;;;;;;;1.05;0.82;;;26.80;46.40;;;;;;5014231;28;87606;-55
2024/02/22 00:53:13;;;;;;;1.75;0.88;;;26.70;46.30;;;;;;5032815;28;88074;-52
2024/02/22 00:55:39;;;;;;;1.73;0.90;;;26.70;46.40;;;;;;5014388;28;87786;-48
2024/02/22 00:58:05;;;;;;;1.42;1.00;;;26.70;46.30;;;;;;5033623;28;87469;-55
2024/02/22 01:00:31;;;;;;;1.05;0.80;;;26.70;46.30;;;;;;5033012;28;87615;-51
2024/02/22 01:02:57;;;;;;;1.48;0.90;;;26.70;46.40;;;;;;5030671;28;87708;-51
2024/02/22 01:05:24;;;;;;;3.67;1.13;;;26.70;46.40;;;;;;5014866;28;88658;-56
2024/02/22 01:07:49;;;;;;;1.17;0.80;;;26.70;46.30;;;;;;5025236;28;87457;-56
2024/02/22 01:10:15;;;;;;;2.22;0.80;;;26.70;46.40;;;;;;5030869;28;87181;-56
2024/02/22 01:12:41;;;;;;;3.47;0.85;;;26.70;46.30;;;;;;5009550;28;88462;-50
2024/02/22 01:15:07;;;;;;;1.70;1.00;;;26.70;46.50;;;;;;5032277;28;87252;-55
2024/02/22 01:17:33;;;;;;;1.10;0.80;;;26.60;46.50;;;;;;5013847;28;87864;-55
2024/02/22 01:19:58;;;;;;;1.30;0.88;;;26.70;46.40;;;;;;5032786;28;87701;-52
2024/02/22 01:22:25;;;;;;;0.80;0.60;;;26.60;46.20;;;;;;5014604;28;87420;-55
2024/02/22 01:24:51;;;;;;;1.13;0.70;;;26.60;46.30;;;;;;5014267;28;88812;-49
2024/02/22 01:27:16;;;;;;;1.45;1.00;;;26.60;46.30;;;;;;5031583;28;87119;-53
2024/02/22 01:29:43;;;;;;;2.95;0.98;;;26.60;46.20;;;;;;5030103;28;86786;-56
2024/02/22 01:32:09;;;;;;;2.30;1.05;;;26.60;46.20;;;;;;5010235;28;87780;-55
2024/02/22 01:34:35;;;;;;;0.82;0.70;;;26.60;46.10;;;;;;5033311;28;87767;-49
2024/02/22 01:37:01;;;;;;;1.13;0.90;;;26.60;46.20;;;;;;5010311;28;88520;-50
2024/02/22 01:39:27;;;;;;;1.63;0.77;;;26.60;46.20;;;;;;5030742;28;87471;-55
2024/02/22 01:41:52;;;;;;;1.55;0.70;;;26.60;46.20;;;;;;5033480;28;87542;-54
2024/02/22 01:44:18;;;;;;;0.90;0.73;;;26.60;46.20;;;;;;5035773;28;87851;-54
2024/02/22 01:46:44;;;;;;;2.05;0.80;;;26.60;46.30;;;;;;5038050;28;87215;-51
2024/02/22 01:49:11;;;;;;;1.50;0.82;;;26.50;46.20;;;;;;5018228;28;87695;-54
2024/02/22 01:51:37;;;;;;;1.13;0.85;;;26.60;46.10;;;;;;5017424;28;88076;-49
2024/02/22 01:54:03;;;;;;;1.20;0.90;;;26.60;46.20;;;;;;5032608;28;87791;-54
2024/02/22 01:56:29;;;;;;;1.00;0.75;;;26.50;46.00;;;;;;5035532;28;86993;-52
2024/02/22 01:58:56;;;;;;;2.03;1.02;;;26.50;46.00;;;;;;5010062;28;87372;-55
2024/02/22 02:01:22;;;;;;;1.38;1.00;;;26.50;46.00;;;;;;5035183;28;89040;-56
2024/02/22 02:03:51;;;;;;;0.82;0.68;;;26.50;46.00;;;;;;5016294;28;89463;-52
2024/02/22 02:06:17;;;;;;;1.63;0.68;;;26.60;46.10;;;;;;5035848;28;87445;-52
2024/02/22 02:08:44;;;;;;;1.05;0.73;;;26.50;46.20;;;;;;5036068;28;87212;-53
2024/02/22 02:11:11;;;;;;;1.95;0.73;;;26.50;46.10;;;;;;5017225;28;89233;-55
2024/02/22 02:13:37;;;;;;;1.55;0.88;;;26.50;46.10;;;;;;5036438;28;87698;-53
2024/02/22 02:16:03;;;;;;;0.75;0.70;;;26.50;46.10;;;;;;5036181;28;87525;-51
2024/02/22 02:18:30;;;;;;;0.55;0.50;;;26.50;46.20;;;;;;5032627;28;86860;-51
2024/02/22 02:21:06;;;;;;;2.28;0.85;;;26.50;46.20;;;;;;4997568;28;88945;-51
2024/02/22 02:23:50;;;;;;;1.08;0.85;;;26.50;46.10;;;;;;5016269;28;88776;-52
2024/02/22 02:26:17;;;;;;;1.73;0.68;;;26.50;46.10;;;;;;5034414;28;88352;-49
2024/02/22 02:28:43;;;;;;;2.00;1.50;;;26.50;46.00;;;;;;5017161;28;88148;-53
2024/02/22 02:31:08;;;;;;;2.00;1.15;;;26.50;46.00;;;;;;5035121;28;88881;-54
2024/02/22 02:33:37;;;;;;;1.15;0.55;;;26.50;46.00;;;;;;5016086;28;88535;-51
2024/02/22 02:36:03;;;;;;;1.15;0.70;;;26.40;45.90;;;;;;5014289;28;87322;-56
2024/02/22 02:38:28;;;;;;;2.70;1.30;;;26.40;46.00;;;;;;5016597;28;87361;-49
2024/02/22 02:40:54;;;;;;;0.90;0.70;;;26.40;45.90;;;;;;5035832;28;87895;-51
2024/02/22 02:43:20;;;;;;;1.15;0.70;;;26.40;45.90;;;;;;5015715;28;89214;-53
2024/02/22 02:45:47;;;;;;;0.77;0.68;;;26.40;45.90;;;;;;5016067;28;87511;-53
2024/02/22 02:48:19;;;;;;;1.75;0.80;;;26.40;45.90;;;;;;5013361;28;87011;-51
2024/02/22 02:50:45;;;;;;;1.73;0.90;;;26.40;46.00;;;;;;5030748;28;89903;-56
2024/02/22 02:53:11;;;;;;;1.48;0.82;;;26.40;46.00;;;;;;5035436;28;88894;-52
2024/02/22 02:55:38;;;;;;;0.70;0.70;;;26.40;45.90;;;;;;5016911;28;87543;-53
2024/02/22 02:58:05;;;;;;;1.75;0.82;;;26.40;46.00;;;;;;5017465;28;87457;-56
2024/02/22 03:00:31;;;;;;;1.02;0.65;;;26.40;46.00;;;;;;5030893;28;89686;-59
2024/02/22 03:03:00;;;;;;;1.50;0.80;;;26.40;45.90;;;;;;5035201;28;88494;-53
2024/02/22 03:05:27;;;;;;;3.00;0.85;;;26.40;45.90;;;;;;5034691;28;87326;-56
2024/02/22 03:07:54;;;;;;;1.45;0.77;;;26.30;46.10;;;;;;5016760;28;86627;-53
2024/02/22 03:10:20;;;;;;;1.92;0.90;;;26.30;46.00;;;;;;5035303;28;88612;-53
2024/02/22 03:12:47;;;;;;;1.13;0.70;;;26.30;46.10;;;;;;5034031;28;87389;-52
2024/02/22 03:15:13;;;;;;;1.35;0.73;;;26.30;46.00;;;;;;4997779;28;88218;-53
2024/02/22 03:17:40;;;;;;;0.85;0.70;;;26.30;46.00;;;;;;5034747;28;87348;-48
2024/02/22 03:20:12;;;;;;;1.58;0.90;;;26.30;46.10;;;;;;5035336;28;87649;-57
2024/02/22 03:22:39;;;;;;;2.95;1.02;;;26.30;46.00;;;;;;5034881;28;87337;-54
2024/02/22 03:25:06;;;;;;;1.52;0.80;;;26.30;45.80;;;;;;5035283;28;86891;-54
2024/02/22 03:27:35;;;;;;;1.45;0.77;;;26.30;45.70;;;;;;5035121;28;87611;-56
2024/02/22 03:30:03;;;;;;;1.70;0.77;;;26.30;45.70;;;;;;5032605;28;87165;-54
2024/02/22 03:32:30;;;;;;;1.35;1.00;;;26.30;46.00;;;;;;5027427;28;87830;-53
2024/02/22 03:34:55;;;;;;;1.40;0.90;;;26.30;46.00;;;;;;5034807;28;86871;-52
2024/02/22 03:37:21;;;;;;;1.15;1.05;;;26.30;45.90;;;;;;5034178;28;87464;-53
2024/02/22 03:39:49;;;;;;;0.95;0.70;;;26.30;46.10;;;;;;5034065;28;88470;-50
2024/02/22 03:42:18;;;;;;;1.97;0.90;;;26.30;46.00;;;;;;5034314;28;88800;-54
2024/02/22 03:44:44;;;;;;;0.95;0.60;;;26.20;45.90;;;;;;5032691;28;87465;-53
2024/02/22 03:47:11;;;;;;;1.23;0.70;;;26.30;46.60;;;;;;5011858;28;87473;-54
2024/02/22 03:49:37;;;;;;;0.57;0.50;;;26.20;46.50;;;;;;5035934;28;87661;-54
2024/02/22 03:52:04;;;;;;;1.52;0.90;;;26.20;45.80;;;;;;5034062;28;87646;-56
2024/02/22 03:54:31;;;;;;;1.13;0.63;;;26.20;45.70;;;;;;5009140;28;87474;-49
2024/02/22 03:56:57;;;;;;;2.60;0.60;;;26.20;45.70;;;;;;5031620;28;86622;-51
2024/02/22 03:59:23;;;;;;;1.15;0.60;;;26.30;45.90;;;;;;5033105;27;86932;-49
2024/02/22 04:01:52;;;;;;;1.52;0.90;;;26.20;45.80;;;;;;5029016;28;87018;-51
2024/02/22 04:04:19;;;;;;;1.08;0.75;;;26.20;45.80;;;;;;4997965;28;88347;-49
2024/02/22 04:06:44;;;;;;;0.77;0.68;;;26.20;45.80;;;;;;5033329;28;87229;-54
2024/02/22 04:09:10;;;;;;;0.60;0.57;;;26.20;45.70;;;;;;5034126;28;87265;-55
2024/02/22 04:11:36;;;;;;;1.27;0.70;;;26.20;45.70;;;;;;5032682;28;87992;-54
2024/02/22 04:14:01;;;;;;;3.17;0.88;;;26.20;45.70;;;;;;5033815;28;86997;-52
2024/02/22 04:16:29;;;;;;;1.02;0.70;;;26.20;45.60;;;;;;5033158;28;87429;-55
2024/02/22 04:18:55;;;;;;;1.00;0.60;;;26.20;45.60;;;;;;5014038;28;87857;-53
2024/02/22 04:21:20;;;;;;;1.02;0.82;;;26.20;45.70;;;;;;5015614;28;88759;-54
2024/02/22 04:23:46;;;;;;;0.70;0.70;;;26.20;45.70;;;;;;5034135;28;87203;-52
2024/02/22 04:26:12;;;;;;;1.38;0.90;;;26.10;45.70;;;;;;5032258;28;86920;-48
2024/02/22 04:28:38;;;;;;;0.65;0.50;;;26.10;45.80;;;;;;5014309;28;89749;-56
2024/02/22 04:31:04;;;;;;;0.88;0.70;;;26.10;45.70;;;;;;5013013;28;89263;-50
2024/02/22 04:33:31;;;;;;;0.68;0.50;;;26.20;45.80;;;;;;5025070;28;87401;-52
2024/02/22 04:35:59;;;;;;;1.15;0.93;;;26.20;45.80;;;;;;5028445;28;87415;-49
2024/02/22 04:38:25;;;;;;;0.93;0.57;;;26.10;45.70;;;;;;5014438;28;90375;-52
2024/02/22 04:40:51;;;;;;;1.05;0.50;;;26.20;45.80;;;;;;5030334;28;86929;-50
2024/02/22 04:43:17;;;;;;;0.77;0.60;;;26.10;45.80;;;;;;4996639;28;86910;-53
2024/02/22 04:45:42;;;;;;;1.38;0.88;;;26.20;45.80;;;;;;4984600;28;87001;-50
2024/02/22 04:48:09;;;;;;;0.98;0.88;;;26.10;45.70;;;;;;5012454;28;88247;-51
2024/02/22 04:50:35;;;;;;;0.90;0.68;;;26.10;45.70;;;;;;5024577;28;87501;-56
2024/02/22 04:53:04;;;;;;;1.10;0.80;;;26.10;45.70;;;;;;5032952;28;88303;-50
2024/02/22 04:55:29;;;;;;;0.73;0.73;;;26.10;45.50;;;;;;5012275;28;91475;-48
2024/02/22 04:57:55;;;;;;;1.27;0.88;;;26.10;45.50;;;;;;5013406;28;88918;-52
2024/02/22 05:00:24;;;;;;;1.05;0.90;;;26.10;45.50;;;;;;5033150;28;87496;-52
2024/02/22 05:02:49;;;;;;;2.78;0.93;;;26.10;45.50;;;;;;5032296;28;86910;-53
2024/02/22 05:05:15;;;;;;;0.70;0.60;;;26.10;45.40;;;;;;5013197;28;87630;-52
2024/02/22 05:07:41;;;;;;;0.85;0.60;;;26.10;45.60;;;;;;5032706;28;87244;-51
2024/02/22 05:10:07;;;;;;;0.73;0.70;;;26.10;45.60;;;;;;5032383;28;87318;-54
2024/02/22 05:12:34;;;;;;;1.75;0.90;;;26.10;45.50;;;;;;5011474;28;87355;-49
2024/02/22 05:15:01;;;;;;;0.70;0.60;;;26.10;45.40;;;;;;5011609;28;87420;-51
2024/02/22 05:17:27;;;;;;;0.95;0.70;;;26.10;45.60;;;;;;5013507;28;89260;-50
2024/02/22 05:19:54;;;;;;;1.20;0.80;;;26.10;45.60;;;;;;5014458;28;89673;-52
2024/02/22 05:22:20;;;;;;;0.60;0.60;;;26.10;45.70;;;;;;5008854;28;87120;-54
2024/02/22 05:24:47;;;;;;;0.82;0.73;;;26.10;45.60;;;;;;5010685;28;87805;-50
2024/02/22 05:27:13;;;;;;;0.60;0.60;;;26.10;45.60;;;;;;5032606;28;88013;-51
2024/02/22 05:29:38;;;;;;;1.40;0.77;;;26.00;45.60;;;;;;5012749;28;87870;-56
2024/02/22 05:32:05;;;;;;;0.88;0.70;;;26.10;45.60;;;;;;5032325;28;86840;-51
2024/02/22 05:34:30;;;;;;;1.10;0.52;;;26.10;45.60;;;;;;5013383;28;87318;-49
2024/02/22 05:36:56;;;;;;;0.65;0.52;;;26.10;45.50;;;;;;5031299;28;88285;-54
2024/02/22 05:39:22;;;;;;;2.33;1.25;;;26.00;45.40;;;;;;5031441;28;86971;-52
2024/02/22 05:41:48;;;;;;;0.70;0.60;;;26.00;45.50;;;;;;5030723;28;88564;-48
2024/02/22 05:44:16;;;;;;;0.60;0.50;;;26.00;45.50;;;;;;5029764;28;87116;-54
2024/02/22 05:46:43;;;;;;;1.10;0.60;;;26.00;45.50;;;;;;5029705;28;89081;-56
2024/02/22 05:49:09;;;;;;;0.68;0.55;;;26.00;45.40;;;;;;4996064;28;88185;-54
2024/02/22 05:51:35;;;;;;;1.27;0.77;;;26.00;45.50;;;;;;5013325;28;87209;-48
2024/02/22 05:54:00;;;;;;;1.10;0.40;;;26.00;45.50;;;;;;5013904;28;88256;-52
2024/02/22 05:56:27;;;;;;;0.63;0.50;;;26.00;45.40;;;;;;5031635;28;87365;-54
2024/02/22 05:58:53;;;;;;;1.73;0.60;;;26.00;45.50;;;;;;5014014;28;89018;-52
2024/02/22 06:01:19;;;;;;;0.85;0.77;;;26.00;45.50;;;;;;5012942;28;87221;-50
2024/02/22 06:03:46;;;;;;;0.60;0.50;;;26.00;45.40;;;;;;5029472;28;87518;-52
2024/02/22 06:06:11;;;;;;;0.95;0.65;;;26.00;45.50;;;;;;5026417;28;88599;-52
2024/02/22 06:08:42;;;;;;;0.88;0.60;;;26.00;45.50;;;;;;5025367;28;88817;-47
2024/02/22 06:11:14;;;;;;;1.08;0.60;;;26.00;45.50;;;;;;5013538;28;87424;-53
2024/02/22 06:13:40;;;;;;;0.73;0.50;;;26.00;45.30;;;;;;5012926;28;88045;-49
2024/02/22 06:16:05;;;;;;;1.05;0.80;;;26.00;45.30;;;;;;5029930;28;87590;-52
2024/02/22 06:18:32;;;;;;;3.05;0.75;;;26.00;45.50;;;;;;5031234;28;87576;-49
2024/02/22 06:20:57;;;;;;;1.13;0.60;;;26.00;45.50;;;;;;5013160;28;86873;-59
2024/02/22 06:23:24;;;;;;;0.57;0.50;;;26.00;45.50;;;;;;5033675;27;86749;-52
2024/02/22 06:25:51;;;;;;;0.73;0.50;;;26.00;45.40;;;;;;5017287;28;89147;-51
2024/02/22 06:28:16;;;;;;;0.82;0.60;;;26.00;45.40;;;;;;5035010;28;88310;-52
2024/02/22 06:30:42;;;;;;;0.57;0.57;;;26.00;45.40;;;;;;5034845;28;88300;-49
2024/02/22 06:33:08;;;;;;;1.75;0.50;;;25.90;45.00;;;;;;5034865;28;87170;-50
2024/02/22 06:35:35;;;;;;;0.45;0.40;;;26.00;45.30;;;;;;5034807;28;87537;-56
2024/02/22 06:38:00;;;;;;;0.52;0.50;;;26.00;45.20;;;;;;5000286;28;89007;-50
2024/02/22 06:40:26;;;;;;;0.60;0.60;;;26.00;45.30;;;;;;5015766;28;87686;-51
2024/02/22 06:42:52;;;;;;;0.60;0.50;;;26.10;45.60;;;;;;5034269;28;87479;-49
2024/02/22 06:45:22;;;;;;;0.85;0.60;;;26.10;45.60;;;;;;5015398;28;88713;-53
2024/02/22 06:47:49;;;;;;;2.72;0.82;;;26.10;45.70;;;;;;5029346;28;87830;-58
2024/02/22 06:50:16;;;;;;;1.20;0.60;;;26.10;45.40;;;;;;4975330;28;87407;-57
2024/02/22 06:52:42;;;;;;;3.15;0.77;;;26.00;45.20;;;;;;4996880;28;87554;-54
2024/02/22 06:55:08;;;;;;;0.88;0.80;;;25.80;46.20;;;;;;4991578;28;88663;-53
2024/02/22 06:57:38;;;;;;;0.85;0.65;;;25.80;46.90;;;;;;5013025;28;90438;-48
2024/02/22 07:00:04;;;;;;;0.73;0.70;;;25.70;47.20;;;;;;5013873;28;87501;-52
2024/02/22 07:02:30;;;;;;;1.05;0.60;;;25.70;47.50;;;;;;5012910;28;87671;-53
2024/02/22 07:04:56;;;;;;;0.95;0.70;;;25.80;47.60;;;;;;5034942;28;88067;-52
2024/02/22 07:07:22;;;;;;;1.55;0.80;;;26.00;47.40;;;;;;5012377;28;87887;-49
2024/02/22 07:09:47;;;;;;;0.63;0.63;;;26.10;47.40;;;;;;5031146;28;87452;-56
2024/02/22 07:12:13;;;;;;;2.25;0.88;;;26.30;47.10;;;;;;5015080;28;86523;-55
2024/02/22 07:14:41;;;;;;;0.90;0.73;;;26.40;46.90;;;;;;5014523;28;88999;-54
2024/02/22 07:17:07;;;;;;;1.73;0.82;;;26.40;46.70;;;;;;5027024;28;87366;-52
2024/02/22 07:19:33;;;;;;;1.98;0.70;;;26.40;46.70;;;;;;5027549;28;88408;-57
2024/02/22 07:22:00;;;;;;;1.10;0.47;;;26.40;46.50;;;;;;5029851;28;87418;-56
2024/02/22 07:24:26;;;;;;;1.17;0.65;;;26.60;46.30;;;;;;5014037;28;88677;-61
2024/02/22 07:26:52;;;;;;;2.78;0.75;;;26.70;46.00;;;;;;5014502;28;88711;-62
2024/02/22 07:29:18;;;;;;;2.08;0.70;;;26.80;45.80;;;;;;5031392;28;87551;-62
2024/02/22 07:31:44;;;;;;;2.53;0.70;;;26.90;45.70;;;;;;5030393;28;86934;-56
2024/02/22 07:34:11;;;;;;;3.17;0.80;;;26.90;45.80;;;;;;5031523;28;87921;-60
2024/02/22 07:36:37;;;;;;;1.15;0.73;;;27.00;45.90;;;;;;5014215;28;88838;-68
2024/02/22 07:39:03;;;;;;;4.45;0.70;;;27.00;45.60;;;;;;5033776;28;87839;-58
2024/02/22 07:41:28;;;;;;;2.05;1.00;;;27.00;45.60;;;;;;5026750;28;87312;-57
2024/02/22 07:43:56;;;;;;;1.52;0.77;;;27.00;46.10;;;;;;5031704;28;89192;-59
2024/02/22 07:46:21;;;;;;;7.05;0.95;;;27.00;46.10;;;;;;5012509;28;90237;-62
2024/02/22 07:48:47;;;;;;;3.38;0.80;;;27.00;46.50;;;;;;5013632;28;87109;-58
2024/02/22 07:51:13;;;;;;;2.60;1.08;;;27.00;47.10;;;;;;5015386;28;88502;-60
2024/02/22 16:25:55;;;;;;;5.25;1.10;;;20.80;66.30;;;;;;5093298;27;86028;-44
2024/02/22 16:28:20;;;;;;;3.75;0.70;;;20.70;67.80;;;;;;5090851;27;86465;-48
2024/02/22 16:30:46;;;;;;;7.72;1.00;;;20.60;67.70;;;;;;5091156;27;86219;-48
2024/02/22 16:33:12;;;;;;;2.60;0.70;;;20.50;68.00;;;;;;5091890;27;86911;-41
2024/02/22 16:35:38;;;;;;;19.40;1.63;;;20.50;68.30;;;;;;5092930;27;87314;-40
2024/02/22 16:38:03;;;;;;;5.32;1.17;;;20.60;67.40;;;;;;5084455;27;85736;-54
2024/02/22 16:40:30;;;;;;;2.45;0.80;;;20.90;69.20;;;;;;5068579;27;85689;-56
2024/02/22 16:42:57;;;;;;;5.53;0.88;;;21.40;65.80;;;;;;5066527;27;89332;-57
2024/02/22 16:45:25;;;;;;;3.05;0.90;;;21.40;65.40;;;;;;5084286;27;85815;-57
2024/02/22 16:47:51;;;;;;;1.92;0.68;;;21.40;65.00;;;;;;5079690;27;86683;-57
2024/02/22 16:50:17;;;;;;;2.05;0.60;;;21.40;64.40;;;;;;5091782;27;85885;-51
2024/02/22 16:52:43;;;;;;;2.45;0.82;;;21.50;64.00;;;;;;5071516;27;86811;-53
2024/02/22 16:55:08;;;;;;;2.15;0.63;;;21.50;63.60;;;;;;5068167;27;85840;-57
2024/02/22 16:57:35;;;;;;;1.70;0.63;;;21.60;63.00;;;;;;5075791;27;85998;-56
2024/02/22 17:00:03;;;;;;;1.88;0.63;;;21.60;62.90;;;;;;5086869;27;86157;-54
2024/02/22 17:02:30;;;;;;;1.42;0.50;;;21.80;63.00;;;;;;5082524;27;86741;-55
2024/02/22 17:04:58;;;;;;;6.47;1.02;;;21.80;62.30;;;;;;5077450;27;86764;-55
2024/02/22 17:07:24;;;;;;;2.45;0.88;;;21.80;62.30;;;;;;5089587;27;85715;-57
2024/02/22 17:09:51;;;;;;;1.90;0.63;;;21.90;62.40;;;;;;5091138;27;85583;-57
2024/02/22 17:12:17;;;;;;;0.88;0.50;;;22.10;62.10;;;;;;5089881;27;86802;-59
2024/02/22 17:14:43;;;;;;;2.22;0.90;;;22.30;61.90;;;;;;5072031;27;86660;-59
2024/02/22 17:17:09;;;;;;;0.85;0.40;;;22.40;61.60;;;;;;5071867;27;86111;-58
2024/02/22 17:19:36;;;;;;;1.25;0.50;;;22.50;61.60;;;;;;5071518;27;85943;-56
2024/02/22 17:22:02;;;;;;;0.60;0.50;;;22.60;61.80;;;;;;5076999;27;85960;-57
2024/02/22 17:24:30;;;;;;;2.08;0.85;;;22.60;61.70;;;;;;5068270;27;87853;-52
2024/02/22 17:26:57;;;;;;;2.17;1.15;;;22.70;61.60;;;;;;5077584;27;86204;-53
2024/02/22 17:29:23;;;;;;;5.20;0.80;;;22.80;61.30;;;;;;5086575;27;86170;-56
2024/02/22 17:31:49;;;;;;;2.30;0.82;;;22.90;61.40;;;;;;5099328;27;87535;-54
2024/02/22 17:34:14;;;;;;;1.58;0.70;;;22.90;61.20;;;;;;5086345;27;85634;-54
2024/02/22 17:36:41;;;;;;;1.30;0.70;;;23.00;61.30;;;;;;5060006;27;86300;-60
2024/02/22 17:39:07;;;;;;;3.55;1.02;;;23.00;60.90;;;;;;5090680;27;86421;-59
2024/02/22 17:41:32;;;;;;;2.92;0.93;;;23.10;61.30;;;;;;5073217;27;87334;-58
2024/02/22 17:43:59;;;;;;;1.55;0.60;;;23.10;60.90;;;;;;5057913;27;86396;-58
2024/02/22 17:46:25;;;;;;;1.60;0.60;;;23.20;61.10;;;;;;5056782;27;85866;-58
2024/02/22 17:48:51;;;;;;;2.70;1.00;;;23.20;61.20;;;;;;5054718;27;86119;-58
2024/02/22 17:51:17;;;;;;;3.70;1.23;;;23.20;61.20;;;;;;5056993;27;87729;-58
2024/02/22 17:53:44;;;;;;;2.95;0.85;;;23.30;61.20;;;;;;5056472;27;86731;-58
2024/02/22 17:56:10;;;;;;;4.47;0.95;;;23.30;60.90;;;;;;5056660;27;86225;-61
2024/02/22 17:58:37;;;;;;;3.70;1.23;;;23.30;60.90;;;;;;5056741;27;85549;-60
2024/02/22 18:01:04;;;;;;;4.05;0.82;;;23.30;60.50;;;;;;5056926;27;87261;-60
2024/02/22 18:03:30;;;;;;;1.95;0.43;;;23.30;60.50;;;;;;5061470;27;86939;-56
2024/02/22 18:05:56;;;;;;;3.40;0.85;;;23.00;60.40;;;;;;5058012;27;86173;-55
2024/02/22 18:08:22;;;;;;;2.15;0.73;;;22.60;61.20;;;;;;5056492;27;86305;-54
2024/02/22 18:10:47;;;;;;;1.08;0.52;;;22.30;61.70;;;;;;5057553;27;86272;-54
2024/02/22 18:13:13;;;;;;;3.53;1.40;;;22.10;62.40;;;;;;5056226;27;86335;-57
2024/02/22 18:15:39;;;;;;;1.65;0.77;;;21.90;63.00;;;;;;5057349;27;86164;-59
2024/02/22 18:18:05;;;;;;;2.33;0.80;;;21.90;63.90;;;;;;5078413;27;86391;-59
2024/02/22 18:20:36;;;;;;;4.65;1.10;;;21.80;64.20;;;;;;5056361;27;86933;-59
2024/02/22 18:23:03;;;;;;;1.60;0.60;;;21.80;64.50;;;;;;5056195;27;86966;-56
2024/02/22 18:25:29;;;;;;;1.40;0.70;;;21.80;64.50;;;;;;5057270;27;86477;-55
2024/02/22 18:27:54;;;;;;;3.00;0.60;;;21.80;64.00;;;;;;5057427;27;86258;-58
2024/02/22 18:30:20;;;;;;;3.05;0.80;;;21.90;63.00;;;;;;5055158;27;86871;-52
2024/02/22 18:32:48;;;;;;;1.88;0.98;;;22.00;63.90;;;;;;5058591;27;86251;-55
2024/02/22 18:35:14;;;;;;;2.17;0.98;;;22.10;64.70;;;;;;5057258;27;86168;-57
2024/02/22 18:37:40;;;;;;;3.00;1.02;;;22.20;64.90;;;;;;5057277;27;86043;-55
2024/02/22 18:40:07;;;;;;;1.98;0.88;;;22.30;64.50;;;;;;5054894;27;86072;-59
2024/02/22 18:42:36;;;;;;;2.85;0.98;;;22.40;64.50;;;;;;5057262;27;86834;-57
2024/02/22 18:45:03;;;;;;;2.10;0.63;;;22.50;64.50;;;;;;5057274;27;86311;-56
2024/02/22 18:47:29;;;;;;;1.33;0.60;;;22.40;64.20;;;;;;5054984;27;86272;-57
2024/02/22 18:49:55;;;;;;;5.60;1.05;;;22.50;64.20;;;;;;5058738;27;86937;-59
2024/02/22 18:52:20;;;;;;;1.33;0.93;;;22.60;64.10;;;;;;5056440;27;86326;-62
2024/02/22 18:54:47;;;;;;;2.33;0.90;;;22.60;63.60;;;;;;5057791;27;85953;-61
2024/02/22 18:57:13;;;;;;;3.45;0.75;;;22.60;63.90;;;;;;5053814;27;86184;-61
2024/02/22 18:59:42;;;;;;;1.23;0.50;;;22.60;63.80;;;;;;5054900;27;87005;-61
2024/02/22 19:02:09;;;;;;;4.03;1.05;;;22.60;63.60;;;;;;5054903;27;86963;-61
2024/02/22 19:04:36;;;;;;;1.77;0.68;;;22.60;63.50;;;;;;5058246;27;86127;-61
2024/02/22 19:07:02;;;;;;;1.33;0.60;;;22.60;63.80;;;;;;5052879;27;85846;-60
2024/02/22 19:09:30;;;;;;;1.58;0.70;;;22.70;63.60;;;;;;5056752;27;87066;-61
2024/02/22 19:11:55;;;;;;;3.63;1.00;;;22.70;63.60;;;;;;5055728;27;86402;-61
2024/02/22 19:14:21;;;;;;;1.95;1.00;;;22.60;63.50;;;;;;5057559;27;86199;-60
2024/02/22 19:16:47;;;;;;;2.35;0.50;;;22.60;63.50;;;;;;5057598;27;86404;-64
2024/02/22 19:19:13;;;;;;;8.40;1.10;;;22.60;63.80;;;;;;5058450;27;86861;-64
2024/02/22 19:21:39;;;;;;;2.45;0.80;;;22.60;63.40;;;;;;5057547;27;87184;-63
2024/02/22 19:24:06;;;;;;;1.05;0.60;;;22.60;63.60;;;;;;5056132;27;85950;-62
2024/02/22 19:26:32;;;;;;;1.95;0.75;;;22.60;63.30;;;;;;5058195;27;86146;-53
2024/02/22 19:28:59;;;;;;;1.77;0.60;;;22.60;63.40;;;;;;5071581;27;87518;-60
2024/02/22 19:31:24;;;;;;;1.90;0.80;;;22.60;62.90;;;;;;5055522;27;86377;-59
2024/02/22 19:33:50;;;;;;;3.30;0.70;;;22.60;63.10;;;;;;5052830;27;86181;-59
2024/02/22 19:36:16;;;;;;;1.90;0.75;;;22.50;63.10;;;;;;5054640;27;87021;-59
2024/02/22 19:38:43;;;;;;;2.28;0.82;;;22.50;63.20;;;;;;5052457;27;87788;-57
2024/02/22 19:41:09;;;;;;;2.28;0.70;;;22.50;63.20;;;;;;5052497;27;86193;-58
2024/02/22 19:43:36;;;;;;;1.88;0.60;;;22.50;63.30;;;;;;5056178;27;86608;-57
2024/02/22 19:46:02;;;;;;;1.92;1.17;;;22.50;62.70;;;;;;5055240;27;85952;-60
2024/02/22 19:48:28;;;;;;;0.98;0.68;;;22.50;62.30;;;;;;5054771;27;88745;-63
2024/02/22 19:50:54;;;;;;;5.63;1.35;;;22.60;62.10;;;;;;5053559;27;85898;-64
2024/02/22 19:53:20;;;;;;;1.75;0.80;;;22.60;62.70;;;;;;5056244;27;85896;-63
2024/02/22 19:55:47;;;;;;;3.05;0.95;;;22.50;62.80;;;;;;5051796;27;86676;-65
2024/02/22 19:58:14;;;;;;;1.88;1.20;;;22.50;62.70;;;;;;5053707;27;87824;-64
2024/02/22 20:00:40;;;;;;;2.13;0.73;;;22.50;62.80;;;;;;5054946;27;86414;-64
2024/02/22 20:03:06;;;;;;;1.63;0.50;;;22.50;63.20;;;;;;5055925;27;86165;-62
2024/02/22 20:05:35;;;;;;;3.20;0.70;;;22.40;62.20;;;;;;5070435;27;86641;-62
2024/02/22 20:08:01;;;;;;;2.95;0.70;;;22.40;62.50;;;;;;5054460;27;85853;-62
2024/02/22 20:10:28;;;;;;;1.58;0.85;;;22.40;62.50;;;;;;5052101;27;86226;-61
2024/02/22 20:12:54;;;;;;;2.00;0.77;;;22.40;62.20;;;;;;5084605;27;86517;-61
2024/02/22 20:15:20;;;;;;;3.20;0.70;;;22.40;61.70;;;;;;5067160;27;86018;-61
2024/02/22 20:17:47;;;;;;;2.75;1.25;;;22.40;61.90;;;;;;5066223;27;87438;-63
2024/02/22 20:20:13;;;;;;;1.85;0.80;;;22.40;61.60;;;;;;5068569;27;86218;-63
2024/02/22 20:22:39;;;;;;;1.23;0.65;;;22.40;61.90;;;;;;5069482;27;85943;-63
2024/02/22 20:25:08;;;;;;;1.77;0.88;;;22.40;62.60;;;;;;5062884;27;86017;-60
2024/02/22 20:27:34;;;;;;;1.13;0.75;;;22.40;63.10;;;;;;5075733;27;86854;-60
2024/02/22 20:30:00;;;;;;;1.10;0.65;;;22.40;62.00;;;;;;5047207;27;86432;-61
2024/02/22 20:32:25;;;;;;;5.22;1.20;;;22.40;62.00;;;;;;5073376;27;86183;-61
2024/02/22 20:34:52;;;;;;;3.15;0.82;;;22.40;62.10;;;;;;5067503;27;85713;-61
2024/02/22 20:37:18;;;;;;;2.78;0.68;;;22.40;62.20;;;;;;5066456;27;85951;-62
2024/02/22 20:39:45;;;;;;;2.72;0.70;;;22.40;62.10;;;;;;5053173;27;87457;-59
2024/02/22 20:42:18;;;;;;;3.75;1.15;;;22.50;62.00;;;;;;5053735;27;86306;-59
2024/02/22 20:44:47;;;;;;;2.70;1.10;;;22.50;61.70;;;;;;5057468;27;87018;-59
2024/02/22 20:47:13;;;;;;;3.53;0.70;;;22.50;61.70;;;;;;5047238;27;86890;-58
2024/02/22 20:49:39;;;;;;;1.17;0.50;;;22.40;61.20;;;;;;5068993;27;87568;-57
2024/02/22 20:52:05;;;;;;;1.67;0.93;;;22.40;61.70;;;;;;5054867;27;85793;-56
2024/02/22 20:54:32;;;;;;;3.05;0.70;;;22.40;61.80;;;;;;5059481;27;85627;-57
2024/02/22 20:56:59;;;;;;;3.25;0.90;;;22.40;61.40;;;;;;5086590;27;86721;-56
2024/02/22 20:59:25;;;;;;;1.02;0.73;;;22.40;60.90;;;;;;5067803;27;86590;-56
2024/02/22 21:01:51;;;;;;;2.47;0.70;;;22.40;60.20;;;;;;5069123;27;86278;-54
2024/02/22 21:04:19;;;;;;;4.63;0.80;;;22.30;60.60;;;;;;5052944;27;86265;-55
2024/02/22 21:06:45;;;;;;;3.25;0.70;;;22.30;60.80;;;;;;5067963;27;87637;-53
2024/02/22 21:09:11;;;;;;;2.50;1.20;;;22.30;61.20;;;;;;5053295;27;86356;-56
2024/02/22 21:11:37;;;;;;;3.65;0.90;;;22.40;61.80;;;;;;5059602;27;85931;-54
2024/02/22 21:14:02;;;;;;;1.90;0.75;;;22.50;60.90;;;;;;5075694;27;86476;-54
2024/02/22 21:16:29;;;;;;;1.10;0.55;;;22.50;58.40;;;;;;5058221;27;86737;-51
2024/02/22 21:18:55;;;;;;;11.30;1.02;;;22.40;57.40;;;;;;5074741;27;87016;-55